Air Navigation Services of Czech Republic  
Last data update:  13.11.2018 19:51:07 UTC Česká verze
   METEO Page displayed:  13.11.2018 19:51:54 UTC  
help
METAR EDDB 131920Z 24010KT CAVOK 07/06 Q1025 NOSIG=
METAR EDDC 131920Z 27010KT 230V310 9999 VCSH FEW031CB 09/05 Q1027 NOSIG=
METAR EDDE 131920Z 24009KT 9999 FEW030 08/05 Q1028 NOSIG=
METAR EDDF 131920Z 19007KT 9999 FEW030 08/06 Q1030 NOSIG=
METAR EDDM 131920Z 26004KT CAVOK 08/06 Q1031 NOSIG=
METAR EDDN 131920Z 17003KT CAVOK 07/06 Q1030 NOSIG=
METAR EDDP 131920Z 22009KT CAVOK 07/06 Q1027 NOSIG=
METAR EDDT 131920Z 25009KT CAVOK 08/06 Q1025 NOSIG=
METAR EDQM 131850Z 23008KT 9999 -SHRA FEW019 SCT033 08/06 Q1028=
METAR EPBY 131930Z 28010KT 9999 FEW012 SCT016 BKN018 09/08 Q1022 =
METAR EPGD 131930Z 26007KT 9999 FEW009 SCT011 08/07 Q1020 =
METAR EPKK 131930Z 26014KT 9999 -RA BKN030 12/09 Q1024 =
METAR EPKT 131930Z 29009KT 9000 -RA SCT005 BKN007 BKN009 10/09 Q1025 RESHRA =
METAR EPLL 131930Z 26013KT 9999 -RA FEW005 BKN007 BKN009 10/10 Q1023 =
METAR EPPO 131930Z 26007KT 9999 BKN007 10/10 Q1024 =
METAR EPRZ 131930Z 08002KT 4400 BR NSC 06/05 Q1023 =
METAR EPWA 131930Z 28010KT 7000 -RA BKN006 11/10 Q1021 NOSIG=
METAR EPWR 131930Z 25007KT CAVOK 09/07 Q1026 =
METAR LHBP 131930Z 33004KT 9999 FEW044 BKN200 11/06 Q1026 NOSIG=
METAR LHSM NIL
METAR LKBC 131930Z AUTO 26006KT CAVOK 07/06 Q1028=
METAR LKCV 131900Z 25008KT CAVOK 10/07 Q1028 NOSIG RMK BLU BLU=
METAR LKKB 131900Z 24012KT CAVOK 10/06 Q1028 NOSIG RMK BLU BLU=
METAR LKKU NIL
METAR LKKV 131900Z 25006KT 9999 SCT013 07/06 Q1028 RMK REG QNH 1024=
METAR LKLN 131930Z AUTO 21004KT 150V260 CAVOK 07/06 Q1030=
METAR LKMT 131930Z 22010KT 6000 SCT017 BKN038 11/09 Q1026 NOSIG RMK REG QNH 1024=
METAR LKNA 131900Z 29010KT 9999 FEW023 08/06 Q1028 NOSIG RMK BLU BLU=
METAR LKPD 131900Z VRB01KT CAVOK 08/07 Q1028 RMK BLACK=
METAR LKPR 131930Z 23011KT CAVOK 08/07 Q1028 NOSIG RMK REG QNH 1024=
SPECI LKTB 131945Z VRB03KT 4900 0800NE R27/1800D BCFG FEW027 07/07 Q1028 RMK REG QNH 1024=
METAR LKVO NIL
METAR LOWI 131920Z 08003KT 050V140 9999 FEW030 BKN045 12/06 Q1031 NOSIG=
METAR LOWL 131920Z 26008KT 9999 FEW033 BKN055 BKN080 10/08 Q1031 NOSIG=
METAR LOWS 131920Z VRB02KT 9999 -RA FEW020 BKN070 11/06 Q1031 NOSIG=
METAR LOWW 131920Z 32012KT 9999 FEW032 SCT040 BKN070 12/08 Q1029 NOSIG=
METAR LZIB 131930Z 30009KT CAVOK 10/08 Q1028=
METAR LZKZ 131930Z 18004KT 9999 BKN049 10/05 Q1025=
METAR LZMC 131900Z VRB02KT 3000 BCFG BR FEW014 OVC070 08/07 Q1029=
METAR LZPP 131930Z 29010KT 9999 SCT010 OVC030 11/08 Q1028=
METAR LZSL 131930Z 26004KT 240V330 CAVOK 10/07 Q1026=
METAR LZTT 131930Z VRB03KT 9999 FEW040 08/05 Q1025=
METAR LZZI 131930Z 24012KT 9999 BKN025 11/08 Q1026=